createdAt,value
2024-04-30T05:00:58.701Z,2.60
2024-04-30T05:12:03.503Z,2.70
2024-04-30T05:23:03.313Z,2.50
2024-04-30T05:34:03.241Z,3.50
2024-04-30T05:45:03.012Z,2.90
2024-04-30T05:56:02.899Z,2.80
2024-04-30T06:07:02.832Z,3.00
2024-04-30T06:18:02.986Z,3.30
2024-04-30T06:29:02.497Z,3.10
2024-04-30T06:40:02.507Z,3.80
2024-04-30T06:51:02.257Z,3.60
2024-04-30T07:02:02.166Z,3.10
2024-04-30T07:13:02.156Z,4.10
2024-04-30T07:24:01.883Z,4.50
2024-04-30T07:35:01.880Z,2.60
2024-04-30T07:46:01.639Z,2.60
2024-04-30T07:57:01.533Z,3.60
2024-04-30T08:08:01.376Z,2.60
2024-04-30T08:19:01.260Z,2.40
2024-04-30T08:30:01.238Z,2.90
2024-04-30T08:41:01.002Z,3.20
2024-04-30T08:52:00.884Z,2.90
2024-04-30T09:03:00.808Z,3.10
2024-04-30T09:14:00.639Z,3.10
2024-04-30T09:25:00.511Z,2.70
2024-04-30T09:36:04.178Z,3.50
2024-04-30T09:47:00.303Z,3.60
2024-04-30T09:58:00.158Z,2.90
2024-04-30T10:09:00.042Z,2.20
2024-04-30T10:09:55.014Z,2.40
2024-04-30T10:10:55.123Z,3.10
2024-04-30T10:21:59.877Z,3.40
2024-04-30T10:22:54.876Z,3.40
2024-04-30T10:23:54.849Z,4.40
2024-04-30T10:34:59.764Z,4.10
2024-04-30T10:35:54.725Z,4.00
2024-04-30T10:36:54.724Z,4.20
2024-04-30T10:47:59.725Z,4.00
2024-04-30T10:48:54.610Z,4.20
2024-04-30T10:50:01.063Z,4.70
2024-04-30T11:00:59.493Z,3.20
2024-04-30T11:01:54.438Z,3.20
2024-04-30T11:02:54.440Z,4.20
2024-04-30T11:14:00.876Z,3.90
2024-04-30T11:14:54.282Z,4.40
2024-04-30T11:16:03.518Z,4.00
2024-04-30T11:26:59.167Z,2.40
2024-04-30T11:27:54.152Z,2.40
2024-04-30T11:29:08.723Z,3.30
2024-04-30T11:39:59.000Z,3.50
2024-04-30T11:40:53.992Z,3.80
2024-04-30T11:42:01.813Z,4.00
2024-04-30T11:52:59.005Z,4.10
2024-04-30T11:53:53.876Z,4.30
2024-04-30T11:54:53.841Z,4.00
2024-04-30T12:05:58.734Z,4.10
2024-04-30T12:06:53.732Z,4.10
2024-04-30T12:07:53.759Z,4.00
2024-04-30T12:18:58.609Z,4.30
2024-04-30T12:29:58.475Z,3.10
2024-04-30T12:40:58.349Z,2.50
2024-04-30T12:51:58.346Z,4.80
2024-04-30T13:02:58.174Z,3.20
2024-04-30T13:03:53.118Z,3.10
2024-04-30T13:04:53.171Z,3.20
2024-04-30T13:15:57.995Z,5.40
2024-04-30T13:16:52.994Z,5.50
2024-04-30T13:17:53.007Z,3.60
2024-04-30T13:28:57.815Z,2.70
2024-04-30T13:29:52.837Z,2.60
2024-04-30T13:30:52.827Z,3.20
2024-04-30T13:41:57.702Z,2.60
2024-04-30T13:42:52.684Z,2.60
2024-04-30T13:43:52.698Z,3.10
2024-04-30T13:54:57.533Z,2.40
2024-04-30T13:55:52.589Z,2.90
2024-04-30T13:56:52.521Z,2.90
2024-04-30T14:07:57.373Z,2.70
2024-04-30T14:08:52.379Z,2.50
2024-04-30T14:09:52.360Z,3.00
2024-04-30T14:20:57.243Z,3.00
2024-04-30T14:31:57.167Z,3.00
2024-04-30T14:32:52.128Z,2.90
2024-04-30T14:33:52.093Z,3.50
2024-04-30T14:44:56.960Z,2.80
2024-04-30T14:45:51.954Z,2.50
2024-04-30T14:46:51.992Z,3.30
2024-04-30T14:57:56.810Z,2.70
2024-04-30T15:08:56.702Z,1.80
2024-04-30T15:19:56.592Z,2.40
2024-04-30T15:30:56.446Z,2.10
2024-04-30T15:31:51.452Z,2.60
2024-04-30T15:32:51.465Z,3.20
2024-04-30T15:43:56.293Z,2.70
2024-04-30T15:54:56.173Z,2.50
2024-04-30T16:05:56.050Z,3.30
2024-04-30T16:16:56.036Z,3.10
2024-04-30T16:27:55.835Z,2.30
2024-04-30T16:38:55.734Z,2.40
2024-04-30T16:49:55.607Z,2.50
2024-04-30T17:00:55.527Z,2.50
2024-04-30T17:11:55.300Z,2.20
2024-04-30T17:22:55.178Z,3.30
2024-04-30T17:33:55.172Z,2.50
2024-04-30T17:44:54.977Z,2.50
2024-04-30T17:55:54.859Z,3.00
2024-04-30T18:06:54.792Z,2.60
2024-04-30T18:17:54.597Z,3.90
2024-04-30T18:28:54.450Z,2.80
2024-04-30T18:39:54.394Z,3.40
2024-04-30T18:50:54.243Z,3.20
2024-04-30T19:01:54.076Z,3.70
2024-04-30T19:12:54.093Z,4.20
2024-04-30T19:23:53.844Z,3.70
2024-04-30T19:34:53.727Z,3.80
2024-04-30T19:45:53.744Z,3.60
2024-04-30T19:56:53.452Z,7.00
2024-04-30T20:07:53.328Z,5.10
2024-04-30T20:18:53.310Z,3.70
2024-04-30T20:29:53.097Z,4.30
2024-04-30T21:22:39.538Z,5.30
2024-04-30T21:33:44.572Z,4.00
2024-04-30T21:44:44.255Z,3.90
2024-04-30T21:55:44.160Z,3.60
2024-04-30T22:06:44.048Z,4.50
2024-04-30T22:17:43.958Z,4.00
2024-04-30T22:28:43.774Z,4.50
2024-04-30T22:39:43.676Z,4.50
2024-04-30T22:50:43.581Z,4.90
2024-04-30T23:01:43.525Z,5.10
2024-04-30T23:12:43.431Z,4.80
2024-04-30T23:23:43.182Z,5.20
2024-04-30T23:34:43.024Z,6.70
2024-04-30T23:45:42.921Z,6.00
2024-04-30T23:56:42.798Z,6.60
